sensor_id;sensor_type;location;lat;lon;timestamp;P1;durP1;ratioP1;P2;durP2;ratioP2
71343;SDS011;59146;43.850;25.948;2022-08-03T00:01:15;4.75;;;4.13;;
71343;SDS011;59146;43.850;25.948;2022-08-03T00:03:42;4.38;;;3.88;;
71343;SDS011;59146;43.850;25.948;2022-08-03T00:06:07;4.38;;;4.00;;
71343;SDS011;59146;43.850;25.948;2022-08-03T00:08:33;4.82;;;3.72;;
71343;SDS011;59146;43.850;25.948;2022-08-03T00:10:58;6.43;;;4.38;;
71343;SDS011;59146;43.850;25.948;2022-08-03T00:13:24;8.18;;;4.30;;
71343;SDS011;59146;43.850;25.948;2022-08-03T00:15:50;6.30;;;4.10;;
71343;SDS011;59146;43.850;25.948;2022-08-03T00:18:15;4.20;;;3.75;;
71343;SDS011;59146;43.850;25.948;2022-08-03T00:20:41;6.75;;;3.97;;
71343;SDS011;59146;43.850;25.948;2022-08-03T00:23:06;6.80;;;4.18;;
71343;SDS011;59146;43.850;25.948;2022-08-03T00:25:33;5.15;;;3.85;;
71343;SDS011;59146;43.850;25.948;2022-08-03T00:27:59;4.22;;;3.83;;
71343;SDS011;59146;43.850;25.948;2022-08-03T00:30:26;4.50;;;4.10;;
71343;SDS011;59146;43.850;25.948;2022-08-03T00:32:51;4.40;;;4.00;;
71343;SDS011;59146;43.850;25.948;2022-08-03T00:35:17;5.43;;;4.10;;
71343;SDS011;59146;43.850;25.948;2022-08-03T00:37:42;4.57;;;4.18;;
71343;SDS011;59146;43.850;25.948;2022-08-03T00:40:09;4.72;;;4.30;;
71343;SDS011;59146;43.850;25.948;2022-08-03T00:42:59;5.68;;;4.03;;
71343;SDS011;59146;43.850;25.948;2022-08-03T00:45:24;10.27;;;4.60;;
71343;SDS011;59146;43.850;25.948;2022-08-03T00:47:52;10.55;;;4.38;;
71343;SDS011;59146;43.850;25.948;2022-08-03T00:50:18;4.57;;;4.05;;
71343;SDS011;59146;43.850;25.948;2022-08-03T00:52:45;4.63;;;4.07;;
71343;SDS011;59146;43.850;25.948;2022-08-03T00:55:11;4.65;;;4.25;;
71343;SDS011;59146;43.850;25.948;2022-08-03T00:57:36;4.65;;;4.15;;
71343;SDS011;59146;43.850;25.948;2022-08-03T01:00:03;4.95;;;4.00;;
71343;SDS011;59146;43.850;25.948;2022-08-03T01:02:30;13.07;;;4.68;;
71343;SDS011;59146;43.850;25.948;2022-08-03T01:04:57;5.35;;;4.28;;
71343;SDS011;59146;43.850;25.948;2022-08-03T01:07:45;5.68;;;4.28;;
71343;SDS011;59146;43.850;25.948;2022-08-03T01:18:09;5.32;;;4.72;;
71343;SDS011;59146;43.850;25.948;2022-08-03T01:20:42;6.18;;;4.40;;
71343;SDS011;59146;43.850;25.948;2022-08-03T01:26:25;4.85;;;4.28;;
71343;SDS011;59146;43.850;25.948;2022-08-03T01:31:38;8.40;;;4.15;;
71343;SDS011;59146;43.850;25.948;2022-08-03T01:34:08;7.40;;;3.90;;
71343;SDS011;59146;43.850;25.948;2022-08-03T01:36:38;4.93;;;4.15;;
71343;SDS011;59146;43.850;25.948;2022-08-03T01:41:57;4.80;;;4.13;;
71343;SDS011;59146;43.850;25.948;2022-08-03T01:44:23;3.78;;;3.42;;
71343;SDS011;59146;43.850;25.948;2022-08-03T01:46:53;8.85;;;4.07;;
71343;SDS011;59146;43.850;25.948;2022-08-03T01:49:22;8.15;;;4.65;;
71343;SDS011;59146;43.850;25.948;2022-08-03T01:51:49;4.40;;;4.00;;
71343;SDS011;59146;43.850;25.948;2022-08-03T01:54:16;8.70;;;3.97;;
71343;SDS011;59146;43.850;25.948;2022-08-03T01:56:43;4.38;;;3.97;;
71343;SDS011;59146;43.850;25.948;2022-08-03T01:59:10;5.43;;;4.07;;
71343;SDS011;59146;43.850;25.948;2022-08-03T02:01:38;5.25;;;3.95;;
71343;SDS011;59146;43.850;25.948;2022-08-03T02:04:04;5.82;;;3.65;;
71343;SDS011;59146;43.850;25.948;2022-08-03T02:06:33;6.63;;;3.90;;
71343;SDS011;59146;43.850;25.948;2022-08-03T02:08:59;11.27;;;4.18;;
71343;SDS011;59146;43.850;25.948;2022-08-03T02:11:26;5.50;;;3.65;;
71343;SDS011;59146;43.850;25.948;2022-08-03T02:13:55;6.07;;;3.45;;
71343;SDS011;59146;43.850;25.948;2022-08-03T02:16:24;6.22;;;3.88;;
71343;SDS011;59146;43.850;25.948;2022-08-03T02:18:52;4.03;;;3.50;;
71343;SDS011;59146;43.850;25.948;2022-08-03T02:21:19;10.23;;;3.85;;
71343;SDS011;59146;43.850;25.948;2022-08-03T02:23:46;9.93;;;3.78;;
71343;SDS011;59146;43.850;25.948;2022-08-03T02:26:14;6.20;;;3.20;;
71343;SDS011;59146;43.850;25.948;2022-08-03T02:28:42;3.80;;;3.50;;
71343;SDS011;59146;43.850;25.948;2022-08-03T02:31:15;3.80;;;3.20;;
71343;SDS011;59146;43.850;25.948;2022-08-03T02:33:50;4.28;;;3.63;;
71343;SDS011;59146;43.850;25.948;2022-08-03T02:36:19;11.30;;;3.72;;
71343;SDS011;59146;43.850;25.948;2022-08-03T02:38:48;5.22;;;3.53;;
71343;SDS011;59146;43.850;25.948;2022-08-03T02:41:17;7.10;;;4.03;;
71343;SDS011;59146;43.850;25.948;2022-08-03T02:43:50;6.18;;;4.10;;
71343;SDS011;59146;43.850;25.948;2022-08-03T02:46:19;5.50;;;3.90;;
71343;SDS011;59146;43.850;25.948;2022-08-03T02:48:47;8.43;;;4.18;;
71343;SDS011;59146;43.850;25.948;2022-08-03T02:51:13;5.72;;;3.80;;
71343;SDS011;59146;43.850;25.948;2022-08-03T02:53:42;7.20;;;4.10;;
71343;SDS011;59146;43.850;25.948;2022-08-03T02:56:09;9.00;;;4.03;;
71343;SDS011;59146;43.850;25.948;2022-08-03T02:58:37;9.18;;;4.18;;
71343;SDS011;59146;43.850;25.948;2022-08-03T03:01:04;11.63;;;4.78;;
71343;SDS011;59146;43.850;25.948;2022-08-03T03:03:31;8.48;;;3.83;;
71343;SDS011;59146;43.850;25.948;2022-08-03T03:05:58;6.80;;;3.83;;
71343;SDS011;59146;43.850;25.948;2022-08-03T03:08:24;5.35;;;3.90;;
71343;SDS011;59146;43.850;25.948;2022-08-03T03:10:51;7.93;;;4.47;;
71343;SDS011;59146;43.850;25.948;2022-08-03T03:13:18;4.22;;;3.70;;
71343;SDS011;59146;43.850;25.948;2022-08-03T03:15:45;6.55;;;4.07;;
71343;SDS011;59146;43.850;25.948;2022-08-03T03:18:11;7.55;;;3.80;;
71343;SDS011;59146;43.850;25.948;2022-08-03T03:20:39;10.23;;;4.38;;
71343;SDS011;59146;43.850;25.948;2022-08-03T03:23:05;4.68;;;3.80;;
71343;SDS011;59146;43.850;25.948;2022-08-03T03:25:33;6.63;;;4.05;;
71343;SDS011;59146;43.850;25.948;2022-08-03T03:27:59;8.88;;;4.78;;
71343;SDS011;59146;43.850;25.948;2022-08-03T03:30:26;10.82;;;5.32;;
71343;SDS011;59146;43.850;25.948;2022-08-03T03:32:52;14.13;;;5.90;;
71343;SDS011;59146;43.850;25.948;2022-08-03T03:35:18;8.80;;;6.25;;
71343;SDS011;59146;43.850;25.948;2022-08-03T03:37:44;13.75;;;5.82;;
71343;SDS011;59146;43.850;25.948;2022-08-03T03:40:09;14.63;;;6.78;;
71343;SDS011;59146;43.850;25.948;2022-08-03T03:42:35;23.38;;;7.15;;
71343;SDS011;59146;43.850;25.948;2022-08-03T03:45:05;30.40;;;8.00;;
71343;SDS011;59146;43.850;25.948;2022-08-03T03:47:32;17.52;;;7.45;;
71343;SDS011;59146;43.850;25.948;2022-08-03T03:49:58;15.13;;;7.47;;
71343;SDS011;59146;43.850;25.948;2022-08-03T03:52:24;16.13;;;6.90;;
71343;SDS011;59146;43.850;25.948;2022-08-03T03:54:49;20.67;;;7.90;;
71343;SDS011;59146;43.850;25.948;2022-08-03T03:57:15;13.63;;;6.85;;
71343;SDS011;59146;43.850;25.948;2022-08-03T03:59:41;9.73;;;6.75;;
71343;SDS011;59146;43.850;25.948;2022-08-03T04:02:07;9.13;;;5.75;;
71343;SDS011;59146;43.850;25.948;2022-08-03T04:04:35;7.03;;;5.55;;
71343;SDS011;59146;43.850;25.948;2022-08-03T04:07:21;10.55;;;4.22;;
71343;SDS011;59146;43.850;25.948;2022-08-03T04:10:14;10.35;;;4.57;;
71343;SDS011;59146;43.850;25.948;2022-08-03T04:13:04;9.98;;;4.32;;
71343;SDS011;59146;43.850;25.948;2022-08-03T04:15:33;8.30;;;4.38;;
71343;SDS011;59146;43.850;25.948;2022-08-03T04:18:01;10.55;;;5.47;;
71343;SDS011;59146;43.850;25.948;2022-08-03T04:20:29;9.65;;;4.32;;
71343;SDS011;59146;43.850;25.948;2022-08-03T04:22:57;10.15;;;4.85;;
71343;SDS011;59146;43.850;25.948;2022-08-03T04:25:25;8.10;;;4.78;;
71343;SDS011;59146;43.850;25.948;2022-08-03T04:27:54;8.60;;;4.32;;
71343;SDS011;59146;43.850;25.948;2022-08-03T04:30:27;7.50;;;4.27;;
71343;SDS011;59146;43.850;25.948;2022-08-03T04:32:57;14.73;;;4.30;;
71343;SDS011;59146;43.850;25.948;2022-08-03T04:35:27;6.80;;;4.68;;
71343;SDS011;59146;43.850;25.948;2022-08-03T04:37:55;8.88;;;4.03;;
71343;SDS011;59146;43.850;25.948;2022-08-03T04:40:32;7.70;;;4.45;;
71343;SDS011;59146;43.850;25.948;2022-08-03T04:42:58;7.17;;;4.30;;
71343;SDS011;59146;43.850;25.948;2022-08-03T04:45:26;10.55;;;4.38;;
71343;SDS011;59146;43.850;25.948;2022-08-03T04:47:52;6.47;;;4.13;;
71343;SDS011;59146;43.850;25.948;2022-08-03T04:50:19;16.67;;;4.07;;
71343;SDS011;59146;43.850;25.948;2022-08-03T04:52:46;8.45;;;4.28;;
71343;SDS011;59146;43.850;25.948;2022-08-03T04:55:11;15.32;;;4.00;;
71343;SDS011;59146;43.850;25.948;2022-08-03T04:57:37;6.55;;;3.67;;
71343;SDS011;59146;43.850;25.948;2022-08-03T05:00:03;10.25;;;3.35;;
71343;SDS011;59146;43.850;25.948;2022-08-03T05:02:30;3.90;;;3.10;;
71343;SDS011;59146;43.850;25.948;2022-08-03T05:04:56;7.03;;;3.33;;
71343;SDS011;59146;43.850;25.948;2022-08-03T05:07:21;6.25;;;3.45;;
71343;SDS011;59146;43.850;25.948;2022-08-03T05:09:47;7.45;;;3.40;;
71343;SDS011;59146;43.850;25.948;2022-08-03T05:12:12;5.68;;;3.35;;
71343;SDS011;59146;43.850;25.948;2022-08-03T05:14:37;7.60;;;3.83;;
71343;SDS011;59146;43.850;25.948;2022-08-03T05:17:03;5.03;;;3.63;;
71343;SDS011;59146;43.850;25.948;2022-08-03T05:19:29;11.05;;;3.00;;
71343;SDS011;59146;43.850;25.948;2022-08-03T05:21:55;5.88;;;3.13;;
71343;SDS011;59146;43.850;25.948;2022-08-03T05:24:20;8.80;;;3.20;;
71343;SDS011;59146;43.850;25.948;2022-08-03T05:26:46;4.15;;;2.65;;
71343;SDS011;59146;43.850;25.948;2022-08-03T05:29:11;3.35;;;2.72;;
71343;SDS011;59146;43.850;25.948;2022-08-03T05:31:37;3.55;;;3.22;;
71343;SDS011;59146;43.850;25.948;2022-08-03T05:34:02;4.70;;;2.42;;
71343;SDS011;59146;43.850;25.948;2022-08-03T05:36:28;2.78;;;2.55;;
71343;SDS011;59146;43.850;25.948;2022-08-03T05:38:53;4.55;;;2.47;;
71343;SDS011;59146;43.850;25.948;2022-08-03T05:41:18;5.05;;;2.53;;
71343;SDS011;59146;43.850;25.948;2022-08-03T05:43:44;4.22;;;2.30;;
71343;SDS011;59146;43.850;25.948;2022-08-03T05:46:10;7.45;;;3.03;;
71343;SDS011;59146;43.850;25.948;2022-08-03T05:48:36;7.88;;;2.92;;
71343;SDS011;59146;43.850;25.948;2022-08-03T05:51:01;4.30;;;2.60;;
71343;SDS011;59146;43.850;25.948;2022-08-03T05:53:31;7.55;;;2.70;;
71343;SDS011;59146;43.850;25.948;2022-08-03T05:55:57;4.88;;;3.05;;
71343;SDS011;59146;43.850;25.948;2022-08-03T05:58:23;2.58;;;2.17;;
71343;SDS011;59146;43.850;25.948;2022-08-03T06:00:48;3.17;;;2.53;;
71343;SDS011;59146;43.850;25.948;2022-08-03T06:03:14;4.93;;;2.55;;
71343;SDS011;59146;43.850;25.948;2022-08-03T06:05:39;4.47;;;2.83;;
71343;SDS011;59146;43.850;25.948;2022-08-03T06:08:04;2.75;;;2.30;;
71343;SDS011;59146;43.850;25.948;2022-08-03T06:10:30;6.13;;;2.63;;
71343;SDS011;59146;43.850;25.948;2022-08-03T06:12:55;8.45;;;2.40;;
71343;SDS011;59146;43.850;25.948;2022-08-03T06:15:21;9.20;;;2.72;;
71343;SDS011;59146;43.850;25.948;2022-08-03T06:17:47;7.47;;;2.58;;
71343;SDS011;59146;43.850;25.948;2022-08-03T06:20:17;14.07;;;4.47;;
71343;SDS011;59146;43.850;25.948;2022-08-03T06:25:09;12.48;;;3.80;;
71343;SDS011;59146;43.850;25.948;2022-08-03T06:27:35;19.83;;;4.82;;
71343;SDS011;59146;43.850;25.948;2022-08-03T06:30:04;12.18;;;5.13;;
71343;SDS011;59146;43.850;25.948;2022-08-03T06:32:34;8.88;;;3.08;;
71343;SDS011;59146;43.850;25.948;2022-08-03T06:35:00;16.52;;;5.25;;
71343;SDS011;59146;43.850;25.948;2022-08-03T06:37:26;18.05;;;4.70;;
71343;SDS011;59146;43.850;25.948;2022-08-03T06:39:52;8.68;;;3.50;;
71343;SDS011;59146;43.850;25.948;2022-08-03T06:42:18;15.55;;;3.00;;
71343;SDS011;59146;43.850;25.948;2022-08-03T06:44:43;12.55;;;3.40;;
71343;SDS011;59146;43.850;25.948;2022-08-03T06:47:09;13.73;;;4.10;;
71343;SDS011;59146;43.850;25.948;2022-08-03T06:49:34;12.27;;;3.53;;
71343;SDS011;59146;43.850;25.948;2022-08-03T06:52:00;13.15;;;3.13;;
71343;SDS011;59146;43.850;25.948;2022-08-03T06:54:25;12.85;;;4.72;;
71343;SDS011;59146;43.850;25.948;2022-08-03T06:56:51;9.65;;;4.00;;
71343;SDS011;59146;43.850;25.948;2022-08-03T06:59:16;10.82;;;2.72;;
71343;SDS011;59146;43.850;25.948;2022-08-03T07:01:45;12.63;;;3.40;;
71343;SDS011;59146;43.850;25.948;2022-08-03T07:04:10;9.43;;;3.53;;
71343;SDS011;59146;43.850;25.948;2022-08-03T07:06:36;10.77;;;3.03;;
71343;SDS011;59146;43.850;25.948;2022-08-03T07:09:03;11.77;;;3.53;;
71343;SDS011;59146;43.850;25.948;2022-08-03T07:11:30;9.18;;;2.78;;
71343;SDS011;59146;43.850;25.948;2022-08-03T07:13:55;5.55;;;2.53;;
71343;SDS011;59146;43.850;25.948;2022-08-03T07:16:21;7.18;;;2.78;;
71343;SDS011;59146;43.850;25.948;2022-08-03T07:18:47;3.35;;;2.40;;
71343;SDS011;59146;43.850;25.948;2022-08-03T07:21:12;2.53;;;1.90;;
71343;SDS011;59146;43.850;25.948;2022-08-03T07:23:40;4.90;;;3.25;;
71343;SDS011;59146;43.850;25.948;2022-08-03T07:26:05;5.65;;;2.53;;
71343;SDS011;59146;43.850;25.948;2022-08-03T07:28:31;4.93;;;2.97;;
71343;SDS011;59146;43.850;25.948;2022-08-03T07:30:56;6.00;;;2.88;;
71343;SDS011;59146;43.850;25.948;2022-08-03T07:33:21;2.75;;;2.55;;
71343;SDS011;59146;43.850;25.948;2022-08-03T07:35:47;5.82;;;3.17;;
71343;SDS011;59146;43.850;25.948;2022-08-03T07:38:12;11.25;;;3.65;;
71343;SDS011;59146;43.850;25.948;2022-08-03T07:40:38;4.00;;;2.67;;
71343;SDS011;59146;43.850;25.948;2022-08-03T07:43:03;6.05;;;2.40;;
71343;SDS011;59146;43.850;25.948;2022-08-03T07:45:30;5.63;;;2.70;;
71343;SDS011;59146;43.850;25.948;2022-08-03T07:47:56;8.93;;;4.22;;
71343;SDS011;59146;43.850;25.948;2022-08-03T07:50:21;9.45;;;3.53;;
71343;SDS011;59146;43.850;25.948;2022-08-03T07:52:47;8.02;;;3.25;;
71343;SDS011;59146;43.850;25.948;2022-08-03T07:55:14;7.40;;;2.95;;
71343;SDS011;59146;43.850;25.948;2022-08-03T07:57:40;7.18;;;2.53;;
71343;SDS011;59146;43.850;25.948;2022-08-03T08:00:07;2.25;;;2.05;;
71343;SDS011;59146;43.850;25.948;2022-08-03T08:02:38;4.70;;;3.00;;
71343;SDS011;59146;43.850;25.948;2022-08-03T08:05:05;2.22;;;2.03;;
71343;SDS011;59146;43.850;25.948;2022-08-03T08:07:32;2.45;;;2.00;;
71343;SDS011;59146;43.850;25.948;2022-08-03T08:09:57;6.25;;;2.33;;
71343;SDS011;59146;43.850;25.948;2022-08-03T08:12:23;4.32;;;2.30;;
71343;SDS011;59146;43.850;25.948;2022-08-03T08:14:48;5.18;;;2.22;;
71343;SDS011;59146;43.850;25.948;2022-08-03T08:17:14;3.67;;;2.25;;
71343;SDS011;59146;43.850;25.948;2022-08-03T08:19:39;4.47;;;2.35;;
71343;SDS011;59146;43.850;25.948;2022-08-03T08:22:04;5.05;;;2.08;;
71343;SDS011;59146;43.850;25.948;2022-08-03T08:24:33;2.95;;;2.25;;
71343;SDS011;59146;43.850;25.948;2022-08-03T08:26:58;3.95;;;2.03;;
71343;SDS011;59146;43.850;25.948;2022-08-03T08:29:25;2.38;;;1.88;;
71343;SDS011;59146;43.850;25.948;2022-08-03T08:31:51;2.80;;;2.00;;
71343;SDS011;59146;43.850;25.948;2022-08-03T08:34:16;6.20;;;3.65;;
71343;SDS011;59146;43.850;25.948;2022-08-03T08:36:42;5.07;;;3.67;;
71343;SDS011;59146;43.850;25.948;2022-08-03T08:39:07;4.07;;;2.10;;
71343;SDS011;59146;43.850;25.948;2022-08-03T08:41:32;3.30;;;2.00;;
71343;SDS011;59146;43.850;25.948;2022-08-03T08:43:59;12.60;;;2.67;;
71343;SDS011;59146;43.850;25.948;2022-08-03T08:46:25;3.22;;;1.80;;
71343;SDS011;59146;43.850;25.948;2022-08-03T08:48:51;3.80;;;2.15;;
71343;SDS011;59146;43.850;25.948;2022-08-03T08:51:18;6.47;;;2.28;;
71343;SDS011;59146;43.850;25.948;2022-08-03T08:53:47;4.63;;;2.03;;
71343;SDS011;59146;43.850;25.948;2022-08-03T08:56:15;9.55;;;2.22;;
71343;SDS011;59146;43.850;25.948;2022-08-03T08:58:43;4.22;;;2.33;;
71343;SDS011;59146;43.850;25.948;2022-08-03T09:01:13;3.13;;;2.58;;
71343;SDS011;59146;43.850;25.948;2022-08-03T09:03:38;5.15;;;2.40;;
71343;SDS011;59146;43.850;25.948;2022-08-03T09:06:05;5.47;;;2.20;;
71343;SDS011;59146;43.850;25.948;2022-08-03T09:08:31;5.57;;;2.70;;
71343;SDS011;59146;43.850;25.948;2022-08-03T09:10:57;9.00;;;2.42;;
71343;SDS011;59146;43.850;25.948;2022-08-03T09:13:22;6.00;;;2.40;;
71343;SDS011;59146;43.850;25.948;2022-08-03T09:15:48;5.53;;;2.53;;
71343;SDS011;59146;43.850;25.948;2022-08-03T09:18:32;2.97;;;2.40;;
71343;SDS011;59146;43.850;25.948;2022-08-03T09:24:00;8.52;;;2.90;;
71343;SDS011;59146;43.850;25.948;2022-08-03T09:26:28;4.63;;;2.75;;
71343;SDS011;59146;43.850;25.948;2022-08-03T09:31:30;5.15;;;2.55;;
71343;SDS011;59146;43.850;25.948;2022-08-03T09:34:05;4.13;;;2.40;;
71343;SDS011;59146;43.850;25.948;2022-08-03T09:36:32;3.03;;;2.10;;
71343;SDS011;59146;43.850;25.948;2022-08-03T09:39:19;3.10;;;2.33;;
71343;SDS011;59146;43.850;25.948;2022-08-03T09:41:47;6.13;;;3.05;;
71343;SDS011;59146;43.850;25.948;2022-08-03T09:44:34;6.22;;;2.47;;
71343;SDS011;59146;43.850;25.948;2022-08-03T09:47:01;3.60;;;2.40;;
71343;SDS011;59146;43.850;25.948;2022-08-03T09:49:27;2.78;;;2.03;;
71343;SDS011;59146;43.850;25.948;2022-08-03T09:51:52;3.83;;;2.15;;
71343;SDS011;59146;43.850;25.948;2022-08-03T09:54:30;10.70;;;2.60;;
71343;SDS011;59146;43.850;25.948;2022-08-03T09:56:56;3.13;;;2.50;;
71343;SDS011;59146;43.850;25.948;2022-08-03T09:59:28;4.40;;;2.13;;
71343;SDS011;59146;43.850;25.948;2022-08-03T10:01:55;6.65;;;2.60;;
71343;SDS011;59146;43.850;25.948;2022-08-03T10:04:22;5.70;;;2.13;;
71343;SDS011;59146;43.850;25.948;2022-08-03T10:07:05;2.92;;;2.30;;
71343;SDS011;59146;43.850;25.948;2022-08-03T10:09:33;7.45;;;1.98;;
71343;SDS011;59146;43.850;25.948;2022-08-03T10:12:12;2.42;;;2.22;;
71343;SDS011;59146;43.850;25.948;2022-08-03T10:14:38;7.45;;;2.10;;
71343;SDS011;59146;43.850;25.948;2022-08-03T10:17:05;6.32;;;2.30;;
71343;SDS011;59146;43.850;25.948;2022-08-03T10:19:32;4.93;;;2.05;;
71343;SDS011;59146;43.850;25.948;2022-08-03T10:22:00;6.43;;;2.25;;
71343;SDS011;59146;43.850;25.948;2022-08-03T10:24:29;2.97;;;2.53;;
71343;SDS011;59146;43.850;25.948;2022-08-03T10:27:01;2.20;;;2.10;;
71343;SDS011;59146;43.850;25.948;2022-08-03T10:29:36;7.13;;;2.60;;
71343;SDS011;59146;43.850;25.948;2022-08-03T10:32:03;3.58;;;2.28;;
71343;SDS011;59146;43.850;25.948;2022-08-03T10:34:35;5.88;;;2.17;;
71343;SDS011;59146;43.850;25.948;2022-08-03T10:37:07;3.35;;;2.10;;
71343;SDS011;59146;43.850;25.948;2022-08-03T10:39:34;2.30;;;2.20;;
71343;SDS011;59146;43.850;25.948;2022-08-03T10:42:00;2.90;;;1.90;;
71343;SDS011;59146;43.850;25.948;2022-08-03T10:44:30;4.20;;;2.13;;
71343;SDS011;59146;43.850;25.948;2022-08-03T10:47:01;2.38;;;2.17;;
71343;SDS011;59146;43.850;25.948;2022-08-03T10:49:28;6.32;;;2.80;;
71343;SDS011;59146;43.850;25.948;2022-08-03T10:51:55;3.83;;;1.92;;
71343;SDS011;59146;43.850;25.948;2022-08-03T10:57:01;3.25;;;2.40;;
71343;SDS011;59146;43.850;25.948;2022-08-03T11:02:10;3.17;;;2.38;;
71343;SDS011;59146;43.850;25.948;2022-08-03T11:04:38;3.90;;;2.30;;
71343;SDS011;59146;43.850;25.948;2022-08-03T11:09:47;7.78;;;2.42;;
71343;SDS011;59146;43.850;25.948;2022-08-03T11:12:21;6.13;;;2.45;;
71343;SDS011;59146;43.850;25.948;2022-08-03T11:14:48;6.78;;;2.28;;
71343;SDS011;59146;43.850;25.948;2022-08-03T11:17:14;3.33;;;2.40;;
71343;SDS011;59146;43.850;25.948;2022-08-03T11:19:43;3.20;;;2.40;;
71343;SDS011;59146;43.850;25.948;2022-08-03T11:22:10;2.85;;;2.00;;
71343;SDS011;59146;43.850;25.948;2022-08-03T11:45:57;10.50;;;2.70;;
71343;SDS011;59146;43.850;25.948;2022-08-03T11:48:33;2.90;;;1.52;;
71343;SDS011;59146;43.850;25.948;2022-08-03T11:51:02;3.35;;;2.45;;
71343;SDS011;59146;43.850;25.948;2022-08-03T11:53:30;4.78;;;2.03;;
71343;SDS011;59146;43.850;25.948;2022-08-03T11:55:59;4.63;;;2.30;;
71343;SDS011;59146;43.850;25.948;2022-08-03T11:58:25;2.22;;;2.00;;
71343;SDS011;59146;43.850;25.948;2022-08-03T12:01:01;7.10;;;2.55;;
71343;SDS011;59146;43.850;25.948;2022-08-03T12:03:30;4.60;;;2.65;;
71343;SDS011;59146;43.850;25.948;2022-08-03T12:05:57;2.95;;;2.28;;
71343;SDS011;59146;43.850;25.948;2022-08-03T12:10:51;3.38;;;2.25;;
71343;SDS011;59146;43.850;25.948;2022-08-03T12:13:17;3.47;;;2.30;;
71343;SDS011;59146;43.850;25.948;2022-08-03T12:15:47;4.90;;;2.20;;
71343;SDS011;59146;43.850;25.948;2022-08-03T12:18:16;5.03;;;2.22;;
71343;SDS011;59146;43.850;25.948;2022-08-03T12:20:42;3.13;;;2.60;;
71343;SDS011;59146;43.850;25.948;2022-08-03T12:23:09;5.18;;;2.30;;
71343;SDS011;59146;43.850;25.948;2022-08-03T12:25:35;6.53;;;2.13;;
71343;SDS011;59146;43.850;25.948;2022-08-03T12:28:07;8.25;;;2.55;;
71343;SDS011;59146;43.850;25.948;2022-08-03T12:30:40;2.35;;;2.10;;
71343;SDS011;59146;43.850;25.948;2022-08-03T12:33:12;2.28;;;2.10;;
71343;SDS011;59146;43.850;25.948;2022-08-03T12:38:30;4.07;;;2.08;;
71343;SDS011;59146;43.850;25.948;2022-08-03T12:41:00;6.85;;;2.08;;
71343;SDS011;59146;43.850;25.948;2022-08-03T12:43:46;7.47;;;2.28;;
71343;SDS011;59146;43.850;25.948;2022-08-03T12:46:15;4.53;;;2.20;;
71343;SDS011;59146;43.850;25.948;2022-08-03T12:54:07;3.10;;;2.20;;
71343;SDS011;59146;43.850;25.948;2022-08-03T12:57:07;8.18;;;2.05;;
71343;SDS011;59146;43.850;25.948;2022-08-03T12:59:37;4.25;;;2.10;;
71343;SDS011;59146;43.850;25.948;2022-08-03T13:02:27;7.18;;;2.88;;
71343;SDS011;59146;43.850;25.948;2022-08-03T13:04:53;11.90;;;2.90;;
71343;SDS011;59146;43.850;25.948;2022-08-03T13:07:19;4.00;;;2.40;;
71343;SDS011;59146;43.850;25.948;2022-08-03T13:09:51;3.67;;;2.35;;
71343;SDS011;59146;43.850;25.948;2022-08-03T13:12:19;5.07;;;2.10;;
71343;SDS011;59146;43.850;25.948;2022-08-03T13:14:47;8.40;;;2.30;;
71343;SDS011;59146;43.850;25.948;2022-08-03T13:17:23;5.90;;;2.33;;
71343;SDS011;59146;43.850;25.948;2022-08-03T13:19:49;7.00;;;2.00;;
71343;SDS011;59146;43.850;25.948;2022-08-03T13:22:19;5.55;;;2.33;;
71343;SDS011;59146;43.850;25.948;2022-08-03T13:24:46;5.72;;;2.15;;
71343;SDS011;59146;43.850;25.948;2022-08-03T13:27:13;4.05;;;2.20;;
71343;SDS011;59146;43.850;25.948;2022-08-03T13:29:39;4.88;;;2.20;;
71343;SDS011;59146;43.850;25.948;2022-08-03T13:32:06;7.95;;;2.30;;
71343;SDS011;59146;43.850;25.948;2022-08-03T13:34:32;6.13;;;2.13;;
71343;SDS011;59146;43.850;25.948;2022-08-03T13:36:57;6.35;;;2.20;;
71343;SDS011;59146;43.850;25.948;2022-08-03T13:39:23;5.22;;;2.25;;
71343;SDS011;59146;43.850;25.948;2022-08-03T13:41:48;5.90;;;1.98;;
71343;SDS011;59146;43.850;25.948;2022-08-03T13:44:14;2.88;;;2.17;;
71343;SDS011;59146;43.850;25.948;2022-08-03T13:46:40;5.00;;;2.38;;
71343;SDS011;59146;43.850;25.948;2022-08-03T13:49:05;7.35;;;2.13;;
71343;SDS011;59146;43.850;25.948;2022-08-03T13:51:31;4.68;;;2.40;;
71343;SDS011;59146;43.850;25.948;2022-08-03T13:53:58;2.13;;;1.90;;
71343;SDS011;59146;43.850;25.948;2022-08-03T13:56:26;5.82;;;1.98;;
71343;SDS011;59146;43.850;25.948;2022-08-03T13:58:53;6.65;;;2.13;;
71343;SDS011;59146;43.850;25.948;2022-08-03T14:01:19;5.28;;;2.10;;
71343;SDS011;59146;43.850;25.948;2022-08-03T14:03:45;3.90;;;2.08;;
71343;SDS011;59146;43.850;25.948;2022-08-03T14:06:12;7.20;;;1.90;;
71343;SDS011;59146;43.850;25.948;2022-08-03T14:08:38;4.13;;;2.13;;
71343;SDS011;59146;43.850;25.948;2022-08-03T14:11:04;2.35;;;1.95;;
71343;SDS011;59146;43.850;25.948;2022-08-03T14:13:30;5.30;;;1.83;;
71343;SDS011;59146;43.850;25.948;2022-08-03T14:15:55;2.53;;;2.30;;
71343;SDS011;59146;43.850;25.948;2022-08-03T14:18:21;11.18;;;2.08;;
71343;SDS011;59146;43.850;25.948;2022-08-03T14:20:46;3.05;;;1.90;;
71343;SDS011;59146;43.850;25.948;2022-08-03T14:23:12;4.85;;;2.00;;
71343;SDS011;59146;43.850;25.948;2022-08-03T14:25:38;4.53;;;1.80;;
71343;SDS011;59146;43.850;25.948;2022-08-03T14:28:05;2.08;;;1.88;;
71343;SDS011;59146;43.850;25.948;2022-08-03T14:30:31;3.58;;;1.75;;
71343;SDS011;59146;43.850;25.948;2022-08-03T14:32:57;5.28;;;1.73;;
71343;SDS011;59146;43.850;25.948;2022-08-03T14:35:23;2.33;;;1.75;;
71343;SDS011;59146;43.850;25.948;2022-08-03T14:37:48;2.05;;;1.77;;
71343;SDS011;59146;43.850;25.948;2022-08-03T14:40:15;7.38;;;2.13;;
71343;SDS011;59146;43.850;25.948;2022-08-03T14:42:41;11.70;;;2.28;;
71343;SDS011;59146;43.850;25.948;2022-08-03T14:45:07;3.17;;;1.77;;
71343;SDS011;59146;43.850;25.948;2022-08-03T14:47:33;7.18;;;2.35;;
71343;SDS011;59146;43.850;25.948;2022-08-03T14:49:58;6.43;;;1.60;;
71343;SDS011;59146;43.850;25.948;2022-08-03T14:52:23;4.95;;;2.13;;
71343;SDS011;59146;43.850;25.948;2022-08-03T14:54:49;2.35;;;2.13;;
71343;SDS011;59146;43.850;25.948;2022-08-03T14:57:15;5.38;;;1.70;;
71343;SDS011;59146;43.850;25.948;2022-08-03T14:59:40;4.95;;;1.80;;
71343;SDS011;59146;43.850;25.948;2022-08-03T15:02:05;3.13;;;2.05;;
71343;SDS011;59146;43.850;25.948;2022-08-03T15:04:31;6.03;;;2.15;;
71343;SDS011;59146;43.850;25.948;2022-08-03T15:06:56;5.68;;;1.98;;
71343;SDS011;59146;43.850;25.948;2022-08-03T15:09:22;7.68;;;1.95;;
71343;SDS011;59146;43.850;25.948;2022-08-03T15:11:47;2.10;;;1.60;;
71343;SDS011;59146;43.850;25.948;2022-08-03T15:14:13;7.22;;;1.88;;
71343;SDS011;59146;43.850;25.948;2022-08-03T15:16:38;3.53;;;1.85;;
71343;SDS011;59146;43.850;25.948;2022-08-03T15:19:04;2.80;;;1.70;;
71343;SDS011;59146;43.850;25.948;2022-08-03T15:21:30;4.25;;;2.05;;
71343;SDS011;59146;43.850;25.948;2022-08-03T15:23:55;6.03;;;2.15;;
71343;SDS011;59146;43.850;25.948;2022-08-03T15:26:23;3.83;;;1.70;;
71343;SDS011;59146;43.850;25.948;2022-08-03T15:28:51;14.30;;;2.25;;
71343;SDS011;59146;43.850;25.948;2022-08-03T15:31:23;5.95;;;1.63;;
71343;SDS011;59146;43.850;25.948;2022-08-03T15:33:49;6.53;;;1.85;;
71343;SDS011;59146;43.850;25.948;2022-08-03T15:36:15;4.25;;;2.08;;
71343;SDS011;59146;43.850;25.948;2022-08-03T15:38:41;9.98;;;1.80;;
71343;SDS011;59146;43.850;25.948;2022-08-03T15:41:07;1.90;;;1.70;;